»·PEaware :: N74AG KVNY-KSNA

N74AG :: KVNY-KSNA

FLIGHT INFORMATION

Flight Status: Arrived
Operator: Privately registered:
United States
More flights under this callsign
Pilot: Jerry G. (20409)
Aircraft: CESSNA 172 SKYHAWK
(C172)
More flights by this aircraft type
Origin: KVNY Van Nuys
United States
Destination: KSNA John Wayne-Orange Co
United States
More flights between these airports :: More routes between these airports
Route: +
File this flight plan on PilotEdge
Remarks: CAT10
Altitude:
(Current/Filed)
5,500ft
Speed:
(Current/Filed)
0kts
Departed: 11-Feb-19 06:31 PM
Arrived: 11-Feb-19 07:47 PM
Distance/Time
Traveled:
44nm/1:16
Distance/Time
To Go:
Arrived

Flight Plot

Page will automatically refresh every two minutes.


Map Options




Map Legend


Flown Route
Filed Route
Departure Airport
Arrival Airport
Navaid (VOR, NDB)
Fix

Horizontal Profiles

Position Reports

Time Latitude Longitude Heading Altitude Ground
Speed
11-Feb-19 18:21 34.205806 -118.487235 280 806ft 0kts
11-Feb-19 18:22 34.205806 -118.487235 280 806ft 0kts
11-Feb-19 18:23 34.205806 -118.487235 280 806ft 0kts
11-Feb-19 18:24 34.205753 -118.488322 326 806ft 5kts
11-Feb-19 18:25 34.209053 -118.488262 356 806ft 17kts
11-Feb-19 18:26 34.213599 -118.488695 355 806ft 15kts
11-Feb-19 18:27 34.217571 -118.489368 355 806ft 13kts
11-Feb-19 18:28 34.218616 -118.489465 352 806ft 0kts
11-Feb-19 18:29 34.218651 -118.489470 352 806ft 2kts
11-Feb-19 18:30 34.212928 -118.489468 175 823ft 84kts
11-Feb-19 18:31 34.193803 -118.488902 206 1791ft 65kts
11-Feb-19 18:32 34.178082 -118.499321 205 2552ft 65kts
11-Feb-19 18:33 34.161434 -118.507881 198 3269ft 65kts
11-Feb-19 18:34 34.143787 -118.514642 197 3872ft 65kts
11-Feb-19 18:35 34.125727 -118.518639 186 4177ft 64kts
11-Feb-19 18:36 34.109491 -118.525701 197 4070ft 68kts
11-Feb-19 18:37 34.111176 -118.513367 29 3568ft 82kts
11-Feb-19 18:38 34.131880 -118.501995 22 2909ft 80kts
11-Feb-19 18:39 34.153115 -118.492939 13 2103ft 83kts
11-Feb-19 18:40 34.175440 -118.488772 3 1335ft 77kts
11-Feb-19 18:41 34.194424 -118.489020 355 806ft 47kts
11-Feb-19 18:42 34.203872 -118.487813 321 806ft 0kts
11-Feb-19 18:43 34.205181 -118.487896 3 806ft 8kts
11-Feb-19 18:44 34.205747 -118.487314 276 806ft 0kts
11-Feb-19 18:45 34.205747 -118.487314 276 806ft 0kts
11-Feb-19 18:46 34.205747 -118.487314 276 806ft 0kts
11-Feb-19 18:51 34.205961 -118.487257 271 806ft 0kts
11-Feb-19 18:52 34.205961 -118.487257 271 806ft 0kts
11-Feb-19 18:53 34.205961 -118.487257 271 806ft 0kts
11-Feb-19 18:54 34.205961 -118.487257 271 806ft 0kts
11-Feb-19 18:55 34.205961 -118.487257 271 806ft 0kts
11-Feb-19 18:56 34.205871 -118.487595 242 806ft 7kts
11-Feb-19 18:57 34.207949 -118.488191 2 806ft 12kts
11-Feb-19 18:58 34.211797 -118.488516 355 806ft 14kts
11-Feb-19 18:59 34.215997 -118.489036 348 806ft 15kts
11-Feb-19 19:00 34.218588 -118.489471 354 806ft 0kts
11-Feb-19 19:01 34.218855 -118.489610 303 806ft 5kts
11-Feb-19 19:02 34.213921 -118.489525 175 807ft 81kts
11-Feb-19 19:03 34.191347 -118.488649 191 1721ft 83kts
11-Feb-19 19:04 34.170699 -118.500725 196 2585ft 84kts
11-Feb-19 19:05 34.147772 -118.506155 191 3392ft 85kts
11-Feb-19 19:06 34.124439 -118.511325 191 4154ft 86kts
11-Feb-19 19:07 34.112105 -118.502246 56 4802ft 88kts
11-Feb-19 19:08 34.133976 -118.490601 352 5283ft 107kts
11-Feb-19 19:09 34.165453 -118.503109 325 5288ft 128kts
11-Feb-19 19:10 34.180969 -118.537171 236 5294ft 128kts
11-Feb-19 19:11 34.146880 -118.542681 173 5298ft 129kts
11-Feb-19 19:12 34.126488 -118.510473 97 5298ft 129kts
11-Feb-19 19:13 34.144315 -118.478273 5 5295ft 129kts
11-Feb-19 19:14 34.169685 -118.504637 289 5297ft 129kts
11-Feb-19 19:15 34.147436 -118.531631 186 5298ft 129kts
11-Feb-19 19:17 34.112017 -118.526127 163 5298ft 129kts
11-Feb-19 19:18 34.079429 -118.507622 149 5306ft 129kts
11-Feb-19 19:19 34.047976 -118.486220 155 5304ft 129kts
11-Feb-19 19:20 34.014450 -118.470041 159 5304ft 129kts
11-Feb-19 19:21 33.980734 -118.454696 158 5304ft 129kts
11-Feb-19 19:22 33.947201 -118.438444 154 5305ft 129kts
11-Feb-19 19:23 33.916325 -118.415958 147 5304ft 129kts
11-Feb-19 19:24 33.886619 -118.391156 144 5304ft 129kts
11-Feb-19 19:25 33.857384 -118.365704 144 5304ft 129kts
11-Feb-19 19:26 33.828176 -118.340140 143 5304ft 129kts
11-Feb-19 19:27 33.798965 -118.314439 143 5304ft 129kts
11-Feb-19 19:28 33.769860 -118.288697 143 5304ft 130kts
11-Feb-19 19:29 33.742941 -118.259909 126 5304ft 130kts
11-Feb-19 19:30 33.728242 -118.220519 108 5304ft 130kts
11-Feb-19 19:31 33.716970 -118.179165 108 5304ft 130kts
11-Feb-19 19:31 33.706806 -118.145063 110 5304ft 130kts
11-Feb-19 19:33 33.699331 -118.096470 74 5303ft 130kts
11-Feb-19 19:34 33.712671 -118.056210 62 5304ft 129kts
11-Feb-19 19:35 33.723333 -118.014895 80 5304ft 130kts
11-Feb-19 19:35 33.728034 -117.979193 81 5304ft 130kts
11-Feb-19 19:37 33.720960 -117.930353 123 5300ft 129kts
11-Feb-19 19:38 33.692572 -117.906361 152 5435ft 126kts
11-Feb-19 19:38 33.667249 -117.893277 160 5274ft 109kts
11-Feb-19 19:39 33.641771 -117.877593 105 5167ft 94kts
11-Feb-19 19:40 33.640004 -117.843938 107 4489ft 97kts
11-Feb-19 19:41 33.648637 -117.815781 19 3614ft 96kts
11-Feb-19 19:42 33.676340 -117.805555 3 2287ft 103kts
11-Feb-19 19:43 33.697862 -117.825878 291 1061ft 108kts
11-Feb-19 19:44 33.698116 -117.852927 210 470ft 74kts
11-Feb-19 19:45 33.682061 -117.862928 207 109ft 55kts
11-Feb-19 19:46 33.677175 -117.866247 275 57ft 3kts
11-Feb-19 19:47 33.677283 -117.866537 295 59ft 0kts
11-Feb-19 19:48 33.678116 -117.868501 267 60ft 7kts
11-Feb-19 19:49 33.675813 -117.870236 213 60ft 8kts
11-Feb-19 19:50 33.675687 -117.871162 212 60ft 0kts

Navigation Log

Ident Type
Flight plan parsing failed, navigation log unavailable